Latest Weather Observations for Sellicks Hill

IDS60801

Issued at 9:05 pm CST Saturday 20 September 2014 (issued every 30 minutes, with the page automatically refreshed every 10 minutes)

About weather observations | Map of weather stations | Latest weather observations for SA | Other Formats
Station Details ID: 023886 Name: MOUNT TERRIBLE RADAR Lat: -35.33 Lon: 138.50 Height: 385.7 m
Data from the previous 72 hours. | See also: Recent months for locations in South Australia
Date/Time
CST
Temp
°C
App
Temp
°C
Dew
Point
Rel
Hum
%
Delta-T
°C
Wind Press
QNH
hPa
Press
MSL
hPa
Rain
since 9 am
mm
Dir
 
Spd
km/h
Gust
km/h
Spd
kts
Gust
kts
20/09:00pm - - - - - ESE 26 35 14 19 - - -
20/08:30pm - - - - - SE 32 35 17 19 - - -
20/08:00pm - - - - - SE 30 37 16 20 - - -
20/07:30pm - - - - - SE 30 37 16 20 - - -
20/07:00pm - - - - - SE 28 33 15 18 - - -
20/06:30pm - - - - - SE 26 32 14 17 - - -
20/06:00pm - - - - - SE 22 30 12 16 - - -
20/05:30pm - - - - - SE 24 32 13 17 - - -
20/05:00pm - - - - - SE 24 32 13 17 - - -
20/04:30pm - - - - - SE 24 30 13 16 - - -
20/04:00pm - - - - - SSE 26 35 14 19 - - -
20/03:30pm - - - - - ESE 11 17 6 9 - - -
20/03:00pm - - - - - SSE 7 13 4 7 - - -
20/02:30pm - - - - - ESE 6 9 3 5 - - -
20/02:00pm - - - - - E 9 15 5 8 - - -
20/01:30pm - - - - - ESE 11 17 6 9 - - -
20/01:00pm - - - - - ESE 7 13 4 7 - - -
20/12:30pm - - - - - ESE 9 19 5 10 - - -
20/12:00pm - - - - - E 9 19 5 10 - - -
20/11:30am - - - - - E 9 15 5 8 - - -
20/11:00am - - - - - E 7 15 4 8 - - -
20/10:30am - - - - - E 7 11 4 6 - - -
20/10:00am - - - - - ENE 7 11 4 6 - - -
20/09:30am - - - - - ENE 7 11 4 6 - - -
20/09:00am - - - - - E 9 15 5 8 - - -
20/08:30am - - - - - E 11 19 6 10 - - -
20/08:00am - - - - - E 15 20 8 11 - - -
20/07:30am - - - - - E 17 22 9 12 - - -
20/07:00am - - - - - E 19 26 10 14 - - -
20/06:30am - - - - - E 20 33 11 18 - - -
20/06:00am - - - - - E 20 33 11 18 - - -
20/05:30am - - - - - E 20 30 11 16 - - -
20/05:00am - - - - - E 22 32 12 17 - - -
20/04:30am - - - - - E 20 32 11 17 - - -
20/04:00am - - - - - E 22 35 12 19 - - -
20/03:30am - - - - - E 24 35 13 19 - - -
20/03:00am - - - - - E 24 35 13 19 - - -
20/02:30am - - - - - E 24 35 13 19 - - -
20/02:00am - - - - - E 26 35 14 19 - - -
20/01:30am - - - - - E 26 35 14 19 - - -
20/01:00am - - - - - E 26 35 14 19 - - -
20/12:30am - - - - - E 24 35 13 19 - - -
20/12:00am - - - - - E 26 37 14 20 - - -
 
Date/Time
CST
Temp
°C
App
Temp
°C
Dew
Point
Rel
Hum
%
Delta-T
°C
Wind Press
QNH
hPa
Press
MSL
hPa
Rain
since 9 am
mm
Dir
 
Spd
km/h
Gust
km/h
Spd
kts
Gust
kts
19/11:30pm - - - - - E 26 39 14 21 - - -
19/11:00pm - - - - - E 26 37 14 20 - - -
19/10:30pm - - - - - E 28 37 15 20 - - -
19/10:00pm - - - - - ESE 24 33 13 18 - - -
19/09:30pm - - - - - ESE 24 33 13 18 - - -
19/09:00pm - - - - - ESE 22 28 12 15 - - -
19/08:30pm - - - - - ESE 20 26 11 14 - - -
19/08:00pm - - - - - ESE 22 28 12 15 - - -
19/07:30pm - - - - - SE 24 28 13 15 - - -
19/07:00pm - - - - - SE 20 24 11 13 - - -
19/06:30pm - - - - - SE 22 26 12 14 - - -
19/06:00pm - - - - - SSE 24 28 13 15 - - -
19/05:30pm - - - - - SSE 24 28 13 15 - - -
19/05:00pm - - - - - SSE 22 26 12 14 - - -
19/04:30pm - - - - - S 13 20 7 11 - - -
19/04:00pm - - - - - WSW 4 9 2 5 - - -
19/03:30pm - - - - - WNW 6 11 3 6 - - -
19/03:00pm - - - - - W 7 15 4 8 - - -
19/02:30pm - - - - - W 7 13 4 7 - - -
19/02:00pm - - - - - WNW 7 19 4 10 - - -
19/01:30pm - - - - - W 7 17 4 9 - - -
19/01:00pm - - - - - NNW 6 13 3 7 - - -
19/12:30pm - - - - - WNW 6 15 3 8 - - -
19/12:00pm - - - - - NE 4 6 2 3 - - -
19/11:30am - - - - - NNE 2 6 1 3 - - -
19/11:00am - - - - - NNE 4 7 2 4 - - -
19/10:30am - - - - - N 4 9 2 5 - - -
19/10:00am - - - - - E 9 15 5 8 - - -
19/09:30am - - - - - ENE 9 15 5 8 - - -
19/09:00am - - - - - E 11 19 6 10 - - -
19/08:30am - - - - - E 15 22 8 12 - - -
19/08:00am - - - - - E 17 26 9 14 - - -
19/07:30am - - - - - E 19 28 10 15 - - -
19/07:00am - - - - - E 20 30 11 16 - - -
19/06:30am - - - - - ESE 20 30 11 16 - - -
19/06:00am - - - - - ESE 22 32 12 17 - - -
19/05:30am - - - - - ESE 22 30 12 16 - - -
19/05:00am - - - - - ESE 22 28 12 15 - - -
19/04:30am - - - - - ESE 20 30 11 16 - - -
19/04:00am - - - - - ESE 20 32 11 17 - - -
19/03:30am - - - - - ESE 22 30 12 16 - - -
19/03:00am - - - - - ESE 24 33 13 18 - - -
19/02:30am - - - - - ESE 26 33 14 18 - - -
19/02:00am - - - - - ESE 26 33 14 18 - - -
19/01:30am - - - - - SE 26 32 14 17 - - -
19/01:00am - - - - - SE 26 30 14 16 - - -
19/12:30am - - - - - SE 22 28 12 15 - - -
19/12:00am - - - - - SE 22 26 12 14 - - -
 
Date/Time
CST
Temp
°C
App
Temp
°C
Dew
Point
Rel
Hum
%
Delta-T
°C
Wind Press
QNH
hPa
Press
MSL
hPa
Rain
since 9 am
mm
Dir
 
Spd
km/h
Gust
km/h
Spd
kts
Gust
kts
18/11:30pm - - - - - SE 24 28 13 15 - - -
18/11:00pm - - - - - SE 22 24 12 13 - - -
18/10:30pm - - - - - SE 22 26 12 14 - - -
18/10:00pm - - - - - SE 22 26 12 14 - - -
18/09:30pm - - - - - SE 22 26 12 14 - - -
18/09:00pm - - - - - SE 22 26 12 14 - - -
18/08:30pm - - - - - SE 20 24 11 13 - - -
18/08:00pm - - - - - SE 22 24 12 13 - - -
18/07:30pm - - - - - SSE 22 24 12 13 - - -
18/07:00pm - - - - - SSE 20 22 11 12 - - -
18/06:30pm - - - - - SSE 19 22 10 12 - - -
18/06:00pm - - - - - SSE 20 26 11 14 - - -
18/05:30pm - - - - - SSE 20 26 11 14 - - -
18/05:00pm - - - - - SSE 17 20 9 11 - - -
18/04:30pm - - - - - SSE 17 22 9 12 - - -
18/04:00pm - - - - - SSE 13 19 7 10 - - -
18/03:30pm - - - - - SSE 17 20 9 11 - - -
18/03:00pm - - - - - SSE 15 19 8 10 - - -
18/02:30pm - - - - - W 4 9 2 5 - - -
18/02:00pm - - - - - SSE 13 19 7 10 - - -
18/01:30pm - - - - - SSE 9 15 5 8 - - -
18/01:00pm - - - - - SSE 11 17 6 9 - - -
18/12:30pm - - - - - S 7 11 4 6 - - -
18/12:00pm - - - - - W 4 7 2 4 - - -
18/11:30am - - - - - WNW 4 9 2 5 - - -
18/11:00am - - - - - WNW 4 9 2 5 - - -
18/10:30am - - - - - W 4 6 2 3 - - -
18/10:00am - - - - - WNW 2 6 1 3 - - -
18/09:30am - - - - - WNW 4 7 2 4 - - -
18/09:00am - - - - - SW 2 4 1 2 - - -
18/08:30am - - - - - SE 6 7 3 4 - - -
18/08:00am - - - - - SE 9 13 5 7 - - -
18/07:30am - - - - - NNW 2 4 1 2 - - -
18/07:00am - - - - - SSE 4 4 2 2 - - -
18/06:30am - - - - - S 11 15 6 8 - - -
18/06:00am - - - - - S 17 20 9 11 - - -
18/05:30am - - - - - SSW 6 7 3 4 - - -
18/05:00am - - - - - ESE 2 4 1 2 - - -
18/04:30am - - - - - SSE 6 7 3 4 - - -
18/04:00am - - - - - S 9 11 5 6 - - -
18/03:30am - - - - - SSW 6 7 3 4 - - -
18/03:00am - - - - - W 4 6 2 3 - - -
18/02:30am - - - - - SSW 7 13 4 7 - - -
18/02:00am - - - - - S 7 11 4 6 - - -
18/01:30am - - - - - S 17 19 9 10 - - -
18/01:00am - - - - - SSW 7 13 4 7 - - -
18/12:30am - - - - - SW 7 13 4 7 - - -
18/12:00am - - - - - SW 9 15 5 8 - - -
 
Date/Time
CST
Temp
°C
App
Temp
°C
Dew
Point
Rel
Hum
%
Delta-T
°C
Wind Press
QNH
hPa
Press
MSL
hPa
Rain
since 9 am
mm
Dir
 
Spd
km/h
Gust
km/h
Spd
kts
Gust
kts
17/11:30pm - - - - - SSW 7 13 4 7 - - -
17/11:00pm - - - - - S 9 13 5 7 - - -
17/10:30pm - - - - - SSW 7 11 4 6 - - -
17/10:00pm - - - - - S 9 13 5 7 - - -
17/09:30pm - - - - - S 13 20 7 11 - - -

Other Formats:

Comma delimited format used in spreadsheet applications
http://www.bom.gov.au/fwo/IDS60801/IDS60801.95679.axf

JavaScript Object Notation format (JSON) in row-major order
http://www.bom.gov.au/fwo/IDS60801/IDS60801.95679.json